sensor_id;sensor_type;location;lat;lon;timestamp;P1;durP1;ratioP1;P2;durP2;ratioP2
67979;SDS011;54760;47.490;19.030;2023-04-28T00:01:14;5.35;;;2.35;;
67979;SDS011;54760;47.490;19.030;2023-04-28T00:03:40;5.20;;;2.70;;
67979;SDS011;54760;47.490;19.030;2023-04-28T00:06:05;4.30;;;2.42;;
67979;SDS011;54760;47.490;19.030;2023-04-28T00:08:30;4.80;;;2.85;;
67979;SDS011;54760;47.490;19.030;2023-04-28T00:10:56;6.55;;;2.92;;
67979;SDS011;54760;47.490;19.030;2023-04-28T00:13:22;4.90;;;2.40;;
67979;SDS011;54760;47.490;19.030;2023-04-28T00:15:48;6.85;;;3.33;;
67979;SDS011;54760;47.490;19.030;2023-04-28T00:18:14;5.47;;;2.83;;
67979;SDS011;54760;47.490;19.030;2023-04-28T00:20:40;4.85;;;3.00;;
67979;SDS011;54760;47.490;19.030;2023-04-28T00:23:05;6.20;;;3.30;;
67979;SDS011;54760;47.490;19.030;2023-04-28T00:25:30;8.13;;;3.53;;
67979;SDS011;54760;47.490;19.030;2023-04-28T00:27:56;7.68;;;3.92;;
67979;SDS011;54760;47.490;19.030;2023-04-28T00:30:21;11.18;;;4.00;;
67979;SDS011;54760;47.490;19.030;2023-04-28T00:32:49;7.20;;;3.75;;
67979;SDS011;54760;47.490;19.030;2023-04-28T00:35:14;8.07;;;4.40;;
67979;SDS011;54760;47.490;19.030;2023-04-28T00:37:40;9.73;;;4.53;;
67979;SDS011;54760;47.490;19.030;2023-04-28T00:40:05;7.37;;;4.00;;
67979;SDS011;54760;47.490;19.030;2023-04-28T00:42:31;10.18;;;4.28;;
67979;SDS011;54760;47.490;19.030;2023-04-28T00:44:57;9.73;;;4.47;;
67979;SDS011;54760;47.490;19.030;2023-04-28T00:47:22;6.20;;;4.18;;
67979;SDS011;54760;47.490;19.030;2023-04-28T00:49:48;10.70;;;4.07;;
67979;SDS011;54760;47.490;19.030;2023-04-28T00:52:13;9.05;;;4.43;;
67979;SDS011;54760;47.490;19.030;2023-04-28T00:54:39;10.02;;;4.05;;
67979;SDS011;54760;47.490;19.030;2023-04-28T00:57:06;10.35;;;4.03;;
67979;SDS011;54760;47.490;19.030;2023-04-28T00:59:33;6.90;;;3.30;;
67979;SDS011;54760;47.490;19.030;2023-04-28T01:01:59;8.88;;;3.37;;
67979;SDS011;54760;47.490;19.030;2023-04-28T01:04:25;8.25;;;3.37;;
67979;SDS011;54760;47.490;19.030;2023-04-28T01:06:53;6.00;;;3.10;;
67979;SDS011;54760;47.490;19.030;2023-04-28T01:09:20;7.22;;;2.90;;
67979;SDS011;54760;47.490;19.030;2023-04-28T01:11:45;5.30;;;3.03;;
67979;SDS011;54760;47.490;19.030;2023-04-28T01:14:11;8.73;;;2.83;;
67979;SDS011;54760;47.490;19.030;2023-04-28T01:16:36;11.05;;;3.75;;
67979;SDS011;54760;47.490;19.030;2023-04-28T01:19:02;6.07;;;2.75;;
67979;SDS011;54760;47.490;19.030;2023-04-28T01:21:32;5.45;;;2.65;;
67979;SDS011;54760;47.490;19.030;2023-04-28T01:23:59;12.20;;;3.05;;
67979;SDS011;54760;47.490;19.030;2023-04-28T01:26:25;10.57;;;3.37;;
67979;SDS011;54760;47.490;19.030;2023-04-28T01:28:50;9.40;;;2.65;;
67979;SDS011;54760;47.490;19.030;2023-04-28T01:31:16;5.90;;;2.83;;
67979;SDS011;54760;47.490;19.030;2023-04-28T01:33:41;6.35;;;2.60;;
67979;SDS011;54760;47.490;19.030;2023-04-28T01:36:07;7.60;;;2.80;;
67979;SDS011;54760;47.490;19.030;2023-04-28T01:38:32;4.25;;;2.85;;
67979;SDS011;54760;47.490;19.030;2023-04-28T01:40:58;4.95;;;2.90;;
67979;SDS011;54760;47.490;19.030;2023-04-28T01:43:24;6.85;;;3.00;;
67979;SDS011;54760;47.490;19.030;2023-04-28T01:45:50;6.68;;;2.72;;
67979;SDS011;54760;47.490;19.030;2023-04-28T01:48:15;4.53;;;2.37;;
67979;SDS011;54760;47.490;19.030;2023-04-28T01:50:41;8.95;;;3.45;;
67979;SDS011;54760;47.490;19.030;2023-04-28T01:53:06;4.47;;;2.78;;
67979;SDS011;54760;47.490;19.030;2023-04-28T01:55:32;6.68;;;3.00;;
67979;SDS011;54760;47.490;19.030;2023-04-28T01:57:57;4.00;;;2.50;;
67979;SDS011;54760;47.490;19.030;2023-04-28T02:00:23;5.35;;;2.60;;
67979;SDS011;54760;47.490;19.030;2023-04-28T02:02:48;4.43;;;2.40;;
67979;SDS011;54760;47.490;19.030;2023-04-28T02:05:14;4.05;;;2.50;;
67979;SDS011;54760;47.490;19.030;2023-04-28T02:07:39;3.87;;;2.40;;
67979;SDS011;54760;47.490;19.030;2023-04-28T02:10:05;5.30;;;2.53;;
67979;SDS011;54760;47.490;19.030;2023-04-28T02:12:31;6.43;;;2.35;;
67979;SDS011;54760;47.490;19.030;2023-04-28T02:14:57;4.18;;;2.55;;
67979;SDS011;54760;47.490;19.030;2023-04-28T02:17:22;3.03;;;2.22;;
67979;SDS011;54760;47.490;19.030;2023-04-28T02:19:52;5.22;;;2.60;;
67979;SDS011;54760;47.490;19.030;2023-04-28T02:22:19;5.82;;;2.80;;
67979;SDS011;54760;47.490;19.030;2023-04-28T02:24:44;4.25;;;2.40;;
67979;SDS011;54760;47.490;19.030;2023-04-28T02:27:09;6.03;;;2.80;;
67979;SDS011;54760;47.490;19.030;2023-04-28T02:29:35;3.58;;;2.17;;
67979;SDS011;54760;47.490;19.030;2023-04-28T02:32:00;4.00;;;2.40;;
67979;SDS011;54760;47.490;19.030;2023-04-28T02:34:26;4.18;;;2.50;;
67979;SDS011;54760;47.490;19.030;2023-04-28T02:36:51;5.07;;;2.30;;
67979;SDS011;54760;47.490;19.030;2023-04-28T02:39:17;4.28;;;2.70;;
67979;SDS011;54760;47.490;19.030;2023-04-28T02:41:42;5.57;;;2.50;;
67979;SDS011;54760;47.490;19.030;2023-04-28T02:44:07;3.92;;;2.42;;
67979;SDS011;54760;47.490;19.030;2023-04-28T02:46:33;4.35;;;2.97;;
67979;SDS011;54760;47.490;19.030;2023-04-28T02:48:58;5.18;;;2.67;;
67979;SDS011;54760;47.490;19.030;2023-04-28T02:51:23;4.03;;;2.30;;
67979;SDS011;54760;47.490;19.030;2023-04-28T02:53:49;5.68;;;2.65;;
67979;SDS011;54760;47.490;19.030;2023-04-28T02:56:15;6.10;;;2.50;;
67979;SDS011;54760;47.490;19.030;2023-04-28T02:58:40;6.00;;;2.50;;
67979;SDS011;54760;47.490;19.030;2023-04-28T03:01:05;6.12;;;2.67;;
67979;SDS011;54760;47.490;19.030;2023-04-28T03:03:31;4.18;;;2.60;;
67979;SDS011;54760;47.490;19.030;2023-04-28T03:05:57;4.97;;;2.55;;
67979;SDS011;54760;47.490;19.030;2023-04-28T03:08:22;3.05;;;2.50;;
67979;SDS011;54760;47.490;19.030;2023-04-28T03:10:48;3.83;;;2.47;;
67979;SDS011;54760;47.490;19.030;2023-04-28T03:13:13;3.87;;;2.50;;
67979;SDS011;54760;47.490;19.030;2023-04-28T03:15:39;5.15;;;2.80;;
67979;SDS011;54760;47.490;19.030;2023-04-28T03:18:04;4.10;;;2.55;;
67979;SDS011;54760;47.490;19.030;2023-04-28T03:20:30;6.87;;;2.55;;
67979;SDS011;54760;47.490;19.030;2023-04-28T03:22:55;4.32;;;2.50;;
67979;SDS011;54760;47.490;19.030;2023-04-28T03:25:20;5.18;;;2.58;;
67979;SDS011;54760;47.490;19.030;2023-04-28T03:27:46;5.30;;;3.10;;
67979;SDS011;54760;47.490;19.030;2023-04-28T03:30:11;6.68;;;3.25;;
67979;SDS011;54760;47.490;19.030;2023-04-28T03:32:37;5.28;;;2.58;;
67979;SDS011;54760;47.490;19.030;2023-04-28T03:35:03;4.95;;;2.60;;
67979;SDS011;54760;47.490;19.030;2023-04-28T03:37:29;8.95;;;2.50;;
67979;SDS011;54760;47.490;19.030;2023-04-28T03:39:54;3.50;;;2.45;;
67979;SDS011;54760;47.490;19.030;2023-04-28T03:42:19;6.85;;;2.50;;
67979;SDS011;54760;47.490;19.030;2023-04-28T03:44:45;5.40;;;2.90;;
67979;SDS011;54760;47.490;19.030;2023-04-28T03:47:10;5.43;;;2.90;;
67979;SDS011;54760;47.490;19.030;2023-04-28T03:49:36;5.00;;;2.83;;
67979;SDS011;54760;47.490;19.030;2023-04-28T03:52:01;5.15;;;2.90;;
67979;SDS011;54760;47.490;19.030;2023-04-28T03:54:28;6.87;;;3.15;;
67979;SDS011;54760;47.490;19.030;2023-04-28T03:56:53;9.65;;;2.92;;
67979;SDS011;54760;47.490;19.030;2023-04-28T03:59:19;6.30;;;3.25;;
67979;SDS011;54760;47.490;19.030;2023-04-28T04:01:45;5.72;;;2.67;;
67979;SDS011;54760;47.490;19.030;2023-04-28T04:04:10;6.05;;;3.10;;
67979;SDS011;54760;47.490;19.030;2023-04-28T04:06:35;6.70;;;2.90;;
67979;SDS011;54760;47.490;19.030;2023-04-28T04:09:01;8.60;;;3.20;;
67979;SDS011;54760;47.490;19.030;2023-04-28T04:11:26;6.65;;;3.35;;
67979;SDS011;54760;47.490;19.030;2023-04-28T04:13:52;8.10;;;3.50;;
67979;SDS011;54760;47.490;19.030;2023-04-28T04:16:17;9.40;;;2.97;;
67979;SDS011;54760;47.490;19.030;2023-04-28T04:18:42;5.80;;;3.25;;
67979;SDS011;54760;47.490;19.030;2023-04-28T04:21:08;7.85;;;3.30;;
67979;SDS011;54760;47.490;19.030;2023-04-28T04:23:33;5.78;;;2.70;;
67979;SDS011;54760;47.490;19.030;2023-04-28T04:25:59;8.93;;;3.60;;
67979;SDS011;54760;47.490;19.030;2023-04-28T04:28:24;5.93;;;3.05;;
67979;SDS011;54760;47.490;19.030;2023-04-28T04:30:50;8.00;;;3.45;;
67979;SDS011;54760;47.490;19.030;2023-04-28T04:33:15;5.62;;;3.50;;
67979;SDS011;54760;47.490;19.030;2023-04-28T04:35:41;7.80;;;4.35;;
67979;SDS011;54760;47.490;19.030;2023-04-28T04:38:06;5.32;;;3.50;;
67979;SDS011;54760;47.490;19.030;2023-04-28T04:40:32;8.52;;;4.20;;
67979;SDS011;54760;47.490;19.030;2023-04-28T04:42:57;6.47;;;3.60;;
67979;SDS011;54760;47.490;19.030;2023-04-28T04:45:23;9.35;;;4.40;;
67979;SDS011;54760;47.490;19.030;2023-04-28T04:47:48;6.65;;;4.05;;
67979;SDS011;54760;47.490;19.030;2023-04-28T04:50:14;6.85;;;4.07;;
67979;SDS011;54760;47.490;19.030;2023-04-28T04:52:39;7.93;;;4.07;;
67979;SDS011;54760;47.490;19.030;2023-04-28T04:55:05;10.02;;;5.37;;
67979;SDS011;54760;47.490;19.030;2023-04-28T04:57:31;8.50;;;4.75;;
67979;SDS011;54760;47.490;19.030;2023-04-28T04:59:56;11.48;;;4.50;;
67979;SDS011;54760;47.490;19.030;2023-04-28T05:02:22;8.75;;;4.62;;
67979;SDS011;54760;47.490;19.030;2023-04-28T05:04:47;9.70;;;4.62;;
67979;SDS011;54760;47.490;19.030;2023-04-28T05:07:12;9.02;;;6.20;;
67979;SDS011;54760;47.490;19.030;2023-04-28T05:09:38;7.85;;;4.80;;
67979;SDS011;54760;47.490;19.030;2023-04-28T05:12:03;7.65;;;4.32;;
67979;SDS011;54760;47.490;19.030;2023-04-28T05:14:29;9.20;;;4.68;;
67979;SDS011;54760;47.490;19.030;2023-04-28T05:16:55;8.68;;;4.90;;
67979;SDS011;54760;47.490;19.030;2023-04-28T05:19:20;8.77;;;4.53;;
67979;SDS011;54760;47.490;19.030;2023-04-28T05:21:46;9.18;;;4.18;;
67979;SDS011;54760;47.490;19.030;2023-04-28T05:24:15;10.45;;;4.93;;
67979;SDS011;54760;47.490;19.030;2023-04-28T05:26:41;9.27;;;4.53;;
67979;SDS011;54760;47.490;19.030;2023-04-28T05:29:06;8.23;;;4.18;;
67979;SDS011;54760;47.490;19.030;2023-04-28T05:31:32;6.20;;;4.10;;
67979;SDS011;54760;47.490;19.030;2023-04-28T05:33:57;10.65;;;4.90;;
67979;SDS011;54760;47.490;19.030;2023-04-28T05:36:23;7.40;;;5.75;;
67979;SDS011;54760;47.490;19.030;2023-04-28T05:38:48;7.32;;;4.68;;
67979;SDS011;54760;47.490;19.030;2023-04-28T05:41:14;6.22;;;4.10;;
67979;SDS011;54760;47.490;19.030;2023-04-28T05:43:39;10.13;;;4.40;;
67979;SDS011;54760;47.490;19.030;2023-04-28T05:46:05;8.13;;;5.18;;
67979;SDS011;54760;47.490;19.030;2023-04-28T05:48:31;9.75;;;4.87;;
67979;SDS011;54760;47.490;19.030;2023-04-28T05:50:56;10.95;;;4.35;;
67979;SDS011;54760;47.490;19.030;2023-04-28T05:53:22;9.52;;;4.43;;
67979;SDS011;54760;47.490;19.030;2023-04-28T05:55:47;8.88;;;4.82;;
67979;SDS011;54760;47.490;19.030;2023-04-28T05:58:12;8.93;;;4.32;;
67979;SDS011;54760;47.490;19.030;2023-04-28T06:00:38;8.10;;;5.40;;
67979;SDS011;54760;47.490;19.030;2023-04-28T06:03:03;6.55;;;3.97;;
67979;SDS011;54760;47.490;19.030;2023-04-28T06:05:29;9.13;;;4.40;;
67979;SDS011;54760;47.490;19.030;2023-04-28T06:07:54;10.98;;;4.57;;
67979;SDS011;54760;47.490;19.030;2023-04-28T06:10:20;8.18;;;4.37;;
67979;SDS011;54760;47.490;19.030;2023-04-28T06:12:46;9.25;;;4.62;;
67979;SDS011;54760;47.490;19.030;2023-04-28T06:15:12;13.07;;;4.57;;
67979;SDS011;54760;47.490;19.030;2023-04-28T06:17:38;12.18;;;4.87;;
67979;SDS011;54760;47.490;19.030;2023-04-28T06:20:04;13.88;;;5.25;;
67979;SDS011;54760;47.490;19.030;2023-04-28T06:22:31;9.05;;;5.12;;
67979;SDS011;54760;47.490;19.030;2023-04-28T06:24:57;9.23;;;5.18;;
67979;SDS011;54760;47.490;19.030;2023-04-28T06:27:22;10.80;;;5.22;;
67979;SDS011;54760;47.490;19.030;2023-04-28T06:29:47;12.13;;;5.57;;
67979;SDS011;54760;47.490;19.030;2023-04-28T06:32:13;9.68;;;5.22;;
67979;SDS011;54760;47.490;19.030;2023-04-28T06:34:38;9.15;;;5.43;;
67979;SDS011;54760;47.490;19.030;2023-04-28T06:37:04;8.63;;;5.75;;
67979;SDS011;54760;47.490;19.030;2023-04-28T06:39:29;10.40;;;6.18;;
67979;SDS011;54760;47.490;19.030;2023-04-28T06:41:55;11.32;;;5.55;;
67979;SDS011;54760;47.490;19.030;2023-04-28T06:44:21;9.13;;;6.15;;
67979;SDS011;54760;47.490;19.030;2023-04-28T06:46:47;11.32;;;6.20;;
67979;SDS011;54760;47.490;19.030;2023-04-28T06:49:12;11.80;;;5.97;;
67979;SDS011;54760;47.490;19.030;2023-04-28T06:51:38;10.95;;;5.80;;
67979;SDS011;54760;47.490;19.030;2023-04-28T06:54:03;13.40;;;6.28;;
67979;SDS011;54760;47.490;19.030;2023-04-28T06:56:29;12.77;;;6.50;;
67979;SDS011;54760;47.490;19.030;2023-04-28T06:58:54;10.95;;;6.03;;
67979;SDS011;54760;47.490;19.030;2023-04-28T07:01:23;13.73;;;6.35;;
67979;SDS011;54760;47.490;19.030;2023-04-28T07:03:49;10.23;;;6.10;;
67979;SDS011;54760;47.490;19.030;2023-04-28T07:06:14;13.75;;;6.80;;
67979;SDS011;54760;47.490;19.030;2023-04-28T07:08:41;9.27;;;6.28;;
67979;SDS011;54760;47.490;19.030;2023-04-28T07:11:07;14.23;;;6.40;;
67979;SDS011;54760;47.490;19.030;2023-04-28T07:13:33;14.80;;;6.80;;
67979;SDS011;54760;47.490;19.030;2023-04-28T07:15:58;11.32;;;7.00;;
67979;SDS011;54760;47.490;19.030;2023-04-28T07:18:24;10.18;;;6.25;;
67979;SDS011;54760;47.490;19.030;2023-04-28T07:20:49;11.32;;;6.75;;
67979;SDS011;54760;47.490;19.030;2023-04-28T07:23:15;12.40;;;6.00;;
67979;SDS011;54760;47.490;19.030;2023-04-28T07:25:40;10.57;;;7.10;;
67979;SDS011;54760;47.490;19.030;2023-04-28T07:28:06;10.85;;;7.10;;
67979;SDS011;54760;47.490;19.030;2023-04-28T07:30:32;9.00;;;5.85;;
67979;SDS011;54760;47.490;19.030;2023-04-28T07:32:58;13.43;;;6.55;;
67979;SDS011;54760;47.490;19.030;2023-04-28T07:35:24;13.93;;;5.97;;
67979;SDS011;54760;47.490;19.030;2023-04-28T07:37:50;10.50;;;6.30;;
67979;SDS011;54760;47.490;19.030;2023-04-28T07:40:15;11.07;;;6.00;;
67979;SDS011;54760;47.490;19.030;2023-04-28T07:42:41;11.65;;;6.15;;
67979;SDS011;54760;47.490;19.030;2023-04-28T07:45:07;12.63;;;6.15;;
67979;SDS011;54760;47.490;19.030;2023-04-28T07:47:32;12.10;;;6.30;;
67979;SDS011;54760;47.490;19.030;2023-04-28T07:49:58;7.90;;;6.10;;
67979;SDS011;54760;47.490;19.030;2023-04-28T07:52:27;16.15;;;7.95;;
67979;SDS011;54760;47.490;19.030;2023-04-28T07:54:52;12.15;;;6.75;;
67979;SDS011;54760;47.490;19.030;2023-04-28T07:57:18;12.45;;;7.50;;
67979;SDS011;54760;47.490;19.030;2023-04-28T07:59:43;11.52;;;7.15;;
67979;SDS011;54760;47.490;19.030;2023-04-28T08:02:09;13.77;;;6.75;;
67979;SDS011;54760;47.490;19.030;2023-04-28T08:04:37;12.60;;;6.43;;
67979;SDS011;54760;47.490;19.030;2023-04-28T08:07:02;11.82;;;6.68;;
67979;SDS011;54760;47.490;19.030;2023-04-28T08:09:28;12.70;;;6.47;;
67979;SDS011;54760;47.490;19.030;2023-04-28T08:11:53;14.43;;;5.72;;
67979;SDS011;54760;47.490;19.030;2023-04-28T08:14:19;10.32;;;5.70;;
67979;SDS011;54760;47.490;19.030;2023-04-28T08:16:45;10.80;;;5.75;;
67979;SDS011;54760;47.490;19.030;2023-04-28T08:19:11;14.52;;;5.55;;
67979;SDS011;54760;47.490;19.030;2023-04-28T08:21:36;13.07;;;5.15;;
67979;SDS011;54760;47.490;19.030;2023-04-28T08:24:02;8.85;;;5.35;;
67979;SDS011;54760;47.490;19.030;2023-04-28T08:26:27;13.25;;;5.15;;
67979;SDS011;54760;47.490;19.030;2023-04-28T08:28:53;11.80;;;5.62;;
67979;SDS011;54760;47.490;19.030;2023-04-28T08:31:18;7.70;;;4.35;;
67979;SDS011;54760;47.490;19.030;2023-04-28T08:33:44;8.85;;;5.00;;
67979;SDS011;54760;47.490;19.030;2023-04-28T08:36:12;13.25;;;4.80;;
67979;SDS011;54760;47.490;19.030;2023-04-28T08:38:39;6.75;;;4.25;;
67979;SDS011;54760;47.490;19.030;2023-04-28T08:41:04;10.43;;;4.15;;
67979;SDS011;54760;47.490;19.030;2023-04-28T08:43:39;9.05;;;4.00;;
67979;SDS011;54760;47.490;19.030;2023-04-28T08:46:07;9.73;;;3.92;;
67979;SDS011;54760;47.490;19.030;2023-04-28T08:48:40;11.95;;;4.62;;
67979;SDS011;54760;47.490;19.030;2023-04-28T08:51:07;7.00;;;3.90;;
67979;SDS011;54760;47.490;19.030;2023-04-28T08:53:35;5.50;;;3.53;;
67979;SDS011;54760;47.490;19.030;2023-04-28T08:56:03;10.13;;;4.15;;
67979;SDS011;54760;47.490;19.030;2023-04-28T08:58:30;6.03;;;3.80;;
67979;SDS011;54760;47.490;19.030;2023-04-28T09:00:56;8.50;;;4.00;;
67979;SDS011;54760;47.490;19.030;2023-04-28T09:03:22;9.30;;;3.78;;
67979;SDS011;54760;47.490;19.030;2023-04-28T09:05:47;7.20;;;3.70;;
67979;SDS011;54760;47.490;19.030;2023-04-28T09:08:13;6.12;;;3.80;;
67979;SDS011;54760;47.490;19.030;2023-04-28T09:10:39;7.90;;;3.47;;
67979;SDS011;54760;47.490;19.030;2023-04-28T09:13:05;8.90;;;3.50;;
67979;SDS011;54760;47.490;19.030;2023-04-28T09:15:31;5.28;;;3.10;;
67979;SDS011;54760;47.490;19.030;2023-04-28T09:18:01;5.82;;;2.90;;
67979;SDS011;54760;47.490;19.030;2023-04-28T09:20:31;7.93;;;3.53;;
67979;SDS011;54760;47.490;19.030;2023-04-28T09:23:13;6.15;;;3.25;;
67979;SDS011;54760;47.490;19.030;2023-04-28T09:26:02;6.40;;;3.75;;
67979;SDS011;54760;47.490;19.030;2023-04-28T09:28:32;6.07;;;2.50;;
67979;SDS011;54760;47.490;19.030;2023-04-28T09:30:59;7.55;;;3.75;;
67979;SDS011;54760;47.490;19.030;2023-04-28T09:33:25;16.85;;;3.55;;
67979;SDS011;54760;47.490;19.030;2023-04-28T09:35:51;5.97;;;3.85;;
67979;SDS011;54760;47.490;19.030;2023-04-28T09:38:17;6.20;;;3.92;;
67979;SDS011;54760;47.490;19.030;2023-04-28T09:41:05;8.93;;;3.50;;
67979;SDS011;54760;47.490;19.030;2023-04-28T09:43:33;5.70;;;3.45;;
67979;SDS011;54760;47.490;19.030;2023-04-28T09:46:00;8.50;;;3.78;;
67979;SDS011;54760;47.490;19.030;2023-04-28T09:48:34;6.55;;;3.60;;
67979;SDS011;54760;47.490;19.030;2023-04-28T09:51:03;7.15;;;3.78;;
67979;SDS011;54760;47.490;19.030;2023-04-28T09:53:32;8.68;;;3.75;;
67979;SDS011;54760;47.490;19.030;2023-04-28T09:55:58;14.07;;;3.70;;
67979;SDS011;54760;47.490;19.030;2023-04-28T09:58:25;8.35;;;3.47;;
67979;SDS011;54760;47.490;19.030;2023-04-28T10:00:53;6.28;;;3.45;;
67979;SDS011;54760;47.490;19.030;2023-04-28T10:03:29;11.98;;;3.42;;
67979;SDS011;54760;47.490;19.030;2023-04-28T10:05:55;8.07;;;3.70;;
67979;SDS011;54760;47.490;19.030;2023-04-28T10:08:22;9.15;;;4.20;;
67979;SDS011;54760;47.490;19.030;2023-04-28T10:10:49;7.82;;;3.95;;
67979;SDS011;54760;47.490;19.030;2023-04-28T10:13:18;6.40;;;3.58;;
67979;SDS011;54760;47.490;19.030;2023-04-28T10:15:45;7.10;;;3.55;;
67979;SDS011;54760;47.490;19.030;2023-04-28T10:18:14;8.93;;;3.60;;
67979;SDS011;54760;47.490;19.030;2023-04-28T10:20:44;7.50;;;3.40;;
67979;SDS011;54760;47.490;19.030;2023-04-28T10:25:59;4.70;;;3.60;;
67979;SDS011;54760;47.490;19.030;2023-04-28T10:28:25;7.03;;;3.20;;
67979;SDS011;54760;47.490;19.030;2023-04-28T10:33:39;7.30;;;2.92;;
67979;SDS011;54760;47.490;19.030;2023-04-28T10:36:06;9.98;;;3.00;;
67979;SDS011;54760;47.490;19.030;2023-04-28T10:38:32;5.97;;;3.05;;
67979;SDS011;54760;47.490;19.030;2023-04-28T10:40:59;7.55;;;3.35;;
67979;SDS011;54760;47.490;19.030;2023-04-28T10:56:09;5.72;;;3.00;;
67979;SDS011;54760;47.490;19.030;2023-04-28T10:58:34;7.43;;;3.10;;
67979;SDS011;54760;47.490;19.030;2023-04-28T11:12:23;5.70;;;3.10;;
67979;SDS011;54760;47.490;19.030;2023-04-28T11:19:18;8.50;;;2.70;;
67979;SDS011;54760;47.490;19.030;2023-04-28T11:21:45;8.82;;;3.00;;
67979;SDS011;54760;47.490;19.030;2023-04-28T11:24:12;8.07;;;2.78;;
67979;SDS011;54760;47.490;19.030;2023-04-28T11:26:38;6.37;;;2.50;;
67979;SDS011;54760;47.490;19.030;2023-04-28T11:29:04;6.85;;;2.85;;
67979;SDS011;54760;47.490;19.030;2023-04-28T11:31:30;7.60;;;3.00;;
67979;SDS011;54760;47.490;19.030;2023-04-28T11:34:05;5.32;;;2.40;;
67979;SDS011;54760;47.490;19.030;2023-04-28T11:36:36;7.60;;;2.37;;
67979;SDS011;54760;47.490;19.030;2023-04-28T11:39:03;4.78;;;2.50;;
67979;SDS011;54760;47.490;19.030;2023-04-28T11:41:31;4.60;;;2.60;;
67979;SDS011;54760;47.490;19.030;2023-04-28T11:43:58;6.03;;;2.50;;
67979;SDS011;54760;47.490;19.030;2023-04-28T11:46:24;7.12;;;3.08;;
67979;SDS011;54760;47.490;19.030;2023-04-28T11:49:00;7.30;;;2.83;;
67979;SDS011;54760;47.490;19.030;2023-04-28T11:51:36;4.65;;;2.70;;
67979;SDS011;54760;47.490;19.030;2023-04-28T11:54:03;11.43;;;3.03;;
67979;SDS011;54760;47.490;19.030;2023-04-28T11:56:35;6.55;;;2.85;;
67979;SDS011;54760;47.490;19.030;2023-04-28T11:59:06;7.35;;;2.95;;
67979;SDS011;54760;47.490;19.030;2023-04-28T12:01:33;4.82;;;2.67;;
67979;SDS011;54760;47.490;19.030;2023-04-28T12:04:01;5.68;;;2.80;;
67979;SDS011;54760;47.490;19.030;2023-04-28T12:06:27;3.90;;;2.67;;
67979;SDS011;54760;47.490;19.030;2023-04-28T12:08:54;9.05;;;2.67;;
67979;SDS011;54760;47.490;19.030;2023-04-28T12:11:19;5.47;;;2.87;;
67979;SDS011;54760;47.490;19.030;2023-04-28T12:14:01;5.10;;;2.67;;
67979;SDS011;54760;47.490;19.030;2023-04-28T12:16:37;6.05;;;2.90;;
67979;SDS011;54760;47.490;19.030;2023-04-28T12:19:07;6.47;;;2.90;;
67979;SDS011;54760;47.490;19.030;2023-04-28T12:21:35;4.93;;;2.30;;
67979;SDS011;54760;47.490;19.030;2023-04-28T12:24:12;8.13;;;3.05;;
67979;SDS011;54760;47.490;19.030;2023-04-28T12:26:38;4.40;;;2.87;;
67979;SDS011;54760;47.490;19.030;2023-04-28T12:29:04;5.70;;;2.83;;
67979;SDS011;54760;47.490;19.030;2023-04-28T12:31:29;4.50;;;2.50;;
67979;SDS011;54760;47.490;19.030;2023-04-28T12:33:55;5.72;;;2.60;;
67979;SDS011;54760;47.490;19.030;2023-04-28T12:36:20;5.85;;;2.40;;
67979;SDS011;54760;47.490;19.030;2023-04-28T12:38:46;4.07;;;2.42;;
67979;SDS011;54760;47.490;19.030;2023-04-28T12:41:12;6.32;;;2.92;;
67979;SDS011;54760;47.490;19.030;2023-04-28T12:43:39;6.00;;;2.40;;
67979;SDS011;54760;47.490;19.030;2023-04-28T12:46:05;5.47;;;2.58;;
67979;SDS011;54760;47.490;19.030;2023-04-28T12:48:32;7.85;;;2.70;;
67979;SDS011;54760;47.490;19.030;2023-04-28T12:50:58;6.70;;;2.72;;
67979;SDS011;54760;47.490;19.030;2023-04-28T12:53:24;5.78;;;2.80;;
67979;SDS011;54760;47.490;19.030;2023-04-28T12:55:50;7.85;;;2.78;;
67979;SDS011;54760;47.490;19.030;2023-04-28T12:58:16;9.98;;;3.25;;
67979;SDS011;54760;47.490;19.030;2023-04-28T13:00:42;7.75;;;2.65;;
67979;SDS011;54760;47.490;19.030;2023-04-28T13:03:07;9.23;;;3.17;;
67979;SDS011;54760;47.490;19.030;2023-04-28T13:05:33;7.10;;;2.47;;
67979;SDS011;54760;47.490;19.030;2023-04-28T13:07:59;7.72;;;2.65;;
67979;SDS011;54760;47.490;19.030;2023-04-28T13:10:24;9.00;;;2.62;;
67979;SDS011;54760;47.490;19.030;2023-04-28T13:12:50;7.93;;;2.90;;
67979;SDS011;54760;47.490;19.030;2023-04-28T13:15:16;4.90;;;2.55;;
67979;SDS011;54760;47.490;19.030;2023-04-28T13:17:41;3.97;;;2.28;;
67979;SDS011;54760;47.490;19.030;2023-04-28T13:20:07;5.47;;;2.50;;
67979;SDS011;54760;47.490;19.030;2023-04-28T13:22:33;4.78;;;2.65;;
67979;SDS011;54760;47.490;19.030;2023-04-28T13:24:58;7.85;;;2.55;;
67979;SDS011;54760;47.490;19.030;2023-04-28T13:27:24;8.60;;;2.40;;
67979;SDS011;54760;47.490;19.030;2023-04-28T13:29:49;4.78;;;2.65;;
67979;SDS011;54760;47.490;19.030;2023-04-28T13:32:15;6.07;;;2.70;;
67979;SDS011;54760;47.490;19.030;2023-04-28T13:34:40;5.45;;;2.47;;
67979;SDS011;54760;47.490;19.030;2023-04-28T13:37:06;5.65;;;2.30;;
67979;SDS011;54760;47.490;19.030;2023-04-28T13:39:31;6.93;;;2.62;;
67979;SDS011;54760;47.490;19.030;2023-04-28T13:41:57;6.97;;;2.53;;
67979;SDS011;54760;47.490;19.030;2023-04-28T13:44:22;5.40;;;2.17;;
67979;SDS011;54760;47.490;19.030;2023-04-28T13:46:48;5.20;;;2.53;;
67979;SDS011;54760;47.490;19.030;2023-04-28T13:49:13;5.00;;;2.33;;
67979;SDS011;54760;47.490;19.030;2023-04-28T13:51:39;5.85;;;2.42;;
67979;SDS011;54760;47.490;19.030;2023-04-28T13:54:05;11.88;;;2.47;;
67979;SDS011;54760;47.490;19.030;2023-04-28T13:56:35;7.70;;;2.50;;
67979;SDS011;54760;47.490;19.030;2023-04-28T13:59:00;6.93;;;2.50;;
67979;SDS011;54760;47.490;19.030;2023-04-28T14:01:26;4.10;;;2.50;;
67979;SDS011;54760;47.490;19.030;2023-04-28T14:03:51;6.93;;;2.40;;
67979;SDS011;54760;47.490;19.030;2023-04-28T14:06:17;4.45;;;2.30;;
67979;SDS011;54760;47.490;19.030;2023-04-28T14:08:42;7.03;;;2.53;;
67979;SDS011;54760;47.490;19.030;2023-04-28T14:11:08;7.20;;;2.70;;
67979;SDS011;54760;47.490;19.030;2023-04-28T14:13:33;8.52;;;2.55;;
67979;SDS011;54760;47.490;19.030;2023-04-28T14:15:59;6.03;;;2.25;;
67979;SDS011;54760;47.490;19.030;2023-04-28T14:18:28;7.70;;;2.75;;
67979;SDS011;54760;47.490;19.030;2023-04-28T14:20:54;9.80;;;2.75;;
67979;SDS011;54760;47.490;19.030;2023-04-28T14:23:19;7.60;;;2.42;;
67979;SDS011;54760;47.490;19.030;2023-04-28T14:25:48;5.35;;;2.35;;
67979;SDS011;54760;47.490;19.030;2023-04-28T14:28:14;4.28;;;2.70;;
67979;SDS011;54760;47.490;19.030;2023-04-28T14:30:40;4.50;;;2.20;;
67979;SDS011;54760;47.490;19.030;2023-04-28T14:33:05;5.70;;;2.40;;
67979;SDS011;54760;47.490;19.030;2023-04-28T14:35:31;2.70;;;2.20;;
67979;SDS011;54760;47.490;19.030;2023-04-28T14:37:58;9.00;;;3.00;;
67979;SDS011;54760;47.490;19.030;2023-04-28T14:40:24;6.35;;;2.60;;
67979;SDS011;54760;47.490;19.030;2023-04-28T14:42:49;8.57;;;2.70;;
67979;SDS011;54760;47.490;19.030;2023-04-28T14:45:15;4.65;;;2.40;;
67979;SDS011;54760;47.490;19.030;2023-04-28T14:47:40;4.87;;;2.47;;
67979;SDS011;54760;47.490;19.030;2023-04-28T14:50:06;8.00;;;2.67;;
67979;SDS011;54760;47.490;19.030;2023-04-28T14:52:32;5.50;;;2.75;;
67979;SDS011;54760;47.490;19.030;2023-04-28T14:54:58;4.30;;;2.45;;
67979;SDS011;54760;47.490;19.030;2023-04-28T14:57:25;4.93;;;2.42;;
67979;SDS011;54760;47.490;19.030;2023-04-28T14:59:51;5.68;;;2.50;;